sensor_id;sensor_type;location;lat;lon;timestamp;P1;durP1;ratioP1;P2;durP2;ratioP2
54899;SDS011;40801;41.924;25.562;2024-03-02T00:00:10;59.53;;;37.17;;
54899;SDS011;40801;41.924;25.562;2024-03-02T00:02:45;66.28;;;40.15;;
54899;SDS011;40801;41.924;25.562;2024-03-02T00:05:12;54.15;;;35.72;;
54899;SDS011;40801;41.924;25.562;2024-03-02T00:07:42;58.13;;;38.03;;
54899;SDS011;40801;41.924;25.562;2024-03-02T00:10:09;59.60;;;38.88;;
54899;SDS011;40801;41.924;25.562;2024-03-02T00:12:37;59.80;;;39.25;;
54899;SDS011;40801;41.924;25.562;2024-03-02T00:15:05;60.30;;;38.92;;
54899;SDS011;40801;41.924;25.562;2024-03-02T00:17:54;58.38;;;38.38;;
54899;SDS011;40801;41.924;25.562;2024-03-02T00:20:21;50.47;;;34.30;;
54899;SDS011;40801;41.924;25.562;2024-03-02T00:22:48;56.15;;;35.20;;
54899;SDS011;40801;41.924;25.562;2024-03-02T00:25:14;57.55;;;36.22;;
54899;SDS011;40801;41.924;25.562;2024-03-02T00:27:40;55.28;;;35.97;;
54899;SDS011;40801;41.924;25.562;2024-03-02T00:30:38;55.92;;;34.63;;
54899;SDS011;40801;41.924;25.562;2024-03-02T00:33:11;46.35;;;31.65;;
54899;SDS011;40801;41.924;25.562;2024-03-02T00:35:37;50.00;;;31.35;;
54899;SDS011;40801;41.924;25.562;2024-03-02T00:38:05;53.05;;;34.33;;
54899;SDS011;40801;41.924;25.562;2024-03-02T00:40:31;57.15;;;35.88;;
54899;SDS011;40801;41.924;25.562;2024-03-02T00:42:57;53.78;;;35.05;;
54899;SDS011;40801;41.924;25.562;2024-03-02T00:45:23;52.33;;;32.85;;
54899;SDS011;40801;41.924;25.562;2024-03-02T00:47:50;54.08;;;35.83;;
54899;SDS011;40801;41.924;25.562;2024-03-02T00:50:15;59.58;;;37.38;;
54899;SDS011;40801;41.924;25.562;2024-03-02T00:52:41;56.38;;;37.03;;
54899;SDS011;40801;41.924;25.562;2024-03-02T00:55:07;57.80;;;36.42;;
54899;SDS011;40801;41.924;25.562;2024-03-02T00:57:33;52.03;;;32.42;;
54899;SDS011;40801;41.924;25.562;2024-03-02T01:00:02;50.50;;;36.65;;
54899;SDS011;40801;41.924;25.562;2024-03-02T01:04:57;61.80;;;38.78;;
54899;SDS011;40801;41.924;25.562;2024-03-02T01:07:22;56.22;;;35.80;;
54899;SDS011;40801;41.924;25.562;2024-03-02T01:09:48;63.50;;;39.15;;
54899;SDS011;40801;41.924;25.562;2024-03-02T01:12:13;57.47;;;36.45;;
54899;SDS011;40801;41.924;25.562;2024-03-02T01:14:38;65.15;;;39.00;;
54899;SDS011;40801;41.924;25.562;2024-03-02T01:17:04;71.00;;;42.58;;
54899;SDS011;40801;41.924;25.562;2024-03-02T01:19:30;62.78;;;38.80;;
54899;SDS011;40801;41.924;25.562;2024-03-02T01:21:55;63.67;;;37.90;;
54899;SDS011;40801;41.924;25.562;2024-03-02T01:24:21;55.30;;;36.17;;
54899;SDS011;40801;41.924;25.562;2024-03-02T01:26:47;58.85;;;38.38;;
54899;SDS011;40801;41.924;25.562;2024-03-02T01:29:12;66.93;;;37.95;;
54899;SDS011;40801;41.924;25.562;2024-03-02T01:31:37;77.00;;;43.60;;
54899;SDS011;40801;41.924;25.562;2024-03-02T01:34:07;78.65;;;43.95;;
54899;SDS011;40801;41.924;25.562;2024-03-02T01:36:32;63.75;;;39.67;;
54899;SDS011;40801;41.924;25.562;2024-03-02T01:38:58;69.00;;;41.13;;
54899;SDS011;40801;41.924;25.562;2024-03-02T01:41:23;64.97;;;39.50;;
54899;SDS011;40801;41.924;25.562;2024-03-02T01:43:48;63.80;;;40.38;;
54899;SDS011;40801;41.924;25.562;2024-03-02T01:46:14;60.65;;;40.85;;
54899;SDS011;40801;41.924;25.562;2024-03-02T01:48:40;59.78;;;38.35;;
54899;SDS011;40801;41.924;25.562;2024-03-02T01:51:06;65.90;;;41.42;;
54899;SDS011;40801;41.924;25.562;2024-03-02T01:53:32;68.35;;;40.63;;
54899;SDS011;40801;41.924;25.562;2024-03-02T01:55:57;71.15;;;42.42;;
54899;SDS011;40801;41.924;25.562;2024-03-02T01:58:23;73.85;;;45.40;;
54899;SDS011;40801;41.924;25.562;2024-03-02T02:00:48;72.93;;;44.55;;
54899;SDS011;40801;41.924;25.562;2024-03-02T02:03:15;72.13;;;44.67;;
54899;SDS011;40801;41.924;25.562;2024-03-02T02:05:42;73.70;;;46.80;;
54899;SDS011;40801;41.924;25.562;2024-03-02T02:08:07;89.78;;;47.08;;
54899;SDS011;40801;41.924;25.562;2024-03-02T02:10:33;77.63;;;44.60;;
54899;SDS011;40801;41.924;25.562;2024-03-02T02:12:58;79.60;;;45.65;;
54899;SDS011;40801;41.924;25.562;2024-03-02T02:15:27;74.20;;;42.88;;
54899;SDS011;40801;41.924;25.562;2024-03-02T02:17:54;63.67;;;38.60;;
54899;SDS011;40801;41.924;25.562;2024-03-02T02:20:20;100.38;;;54.05;;
54899;SDS011;40801;41.924;25.562;2024-03-02T02:22:53;62.60;;;41.65;;
54899;SDS011;40801;41.924;25.562;2024-03-02T02:25:22;93.55;;;47.67;;
54899;SDS011;40801;41.924;25.562;2024-03-02T02:27:47;74.93;;;44.28;;
54899;SDS011;40801;41.924;25.562;2024-03-02T02:30:13;87.95;;;47.45;;
54899;SDS011;40801;41.924;25.562;2024-03-02T02:32:38;82.60;;;46.83;;
54899;SDS011;40801;41.924;25.562;2024-03-02T02:35:04;65.93;;;41.67;;
54899;SDS011;40801;41.924;25.562;2024-03-02T02:37:30;78.22;;;48.20;;
54899;SDS011;40801;41.924;25.562;2024-03-02T02:39:55;71.45;;;42.88;;
54899;SDS011;40801;41.924;25.562;2024-03-02T02:42:20;78.15;;;45.42;;
54899;SDS011;40801;41.924;25.562;2024-03-02T02:44:46;78.80;;;44.17;;
54899;SDS011;40801;41.924;25.562;2024-03-02T02:47:11;64.00;;;37.92;;
54899;SDS011;40801;41.924;25.562;2024-03-02T02:49:36;68.18;;;39.15;;
54899;SDS011;40801;41.924;25.562;2024-03-02T02:52:02;58.50;;;36.88;;
54899;SDS011;40801;41.924;25.562;2024-03-02T02:54:28;71.03;;;39.75;;
54899;SDS011;40801;41.924;25.562;2024-03-02T02:56:53;67.95;;;41.30;;
54899;SDS011;40801;41.924;25.562;2024-03-02T02:59:18;53.03;;;35.25;;
54899;SDS011;40801;41.924;25.562;2024-03-02T03:01:44;82.07;;;46.53;;
54899;SDS011;40801;41.924;25.562;2024-03-02T03:04:09;75.03;;;39.35;;
54899;SDS011;40801;41.924;25.562;2024-03-02T03:06:34;67.93;;;40.25;;
54899;SDS011;40801;41.924;25.562;2024-03-02T03:09:00;70.40;;;42.42;;
54899;SDS011;40801;41.924;25.562;2024-03-02T03:11:25;63.30;;;38.85;;
54899;SDS011;40801;41.924;25.562;2024-03-02T03:13:51;72.95;;;44.42;;
54899;SDS011;40801;41.924;25.562;2024-03-02T03:16:18;66.00;;;45.20;;
54899;SDS011;40801;41.924;25.562;2024-03-02T03:18:43;71.47;;;43.30;;
54899;SDS011;40801;41.924;25.562;2024-03-02T03:21:10;66.63;;;43.58;;
54899;SDS011;40801;41.924;25.562;2024-03-02T03:23:35;68.32;;;42.13;;
54899;SDS011;40801;41.924;25.562;2024-03-02T03:26:00;69.30;;;42.22;;
54899;SDS011;40801;41.924;25.562;2024-03-02T03:28:26;62.55;;;38.85;;
54899;SDS011;40801;41.924;25.562;2024-03-02T03:30:51;63.78;;;36.78;;
54899;SDS011;40801;41.924;25.562;2024-03-02T03:33:16;56.03;;;35.88;;
54899;SDS011;40801;41.924;25.562;2024-03-02T03:35:42;62.83;;;38.33;;
54899;SDS011;40801;41.924;25.562;2024-03-02T03:38:07;81.57;;;43.33;;
54899;SDS011;40801;41.924;25.562;2024-03-02T03:40:32;65.63;;;40.70;;
54899;SDS011;40801;41.924;25.562;2024-03-02T03:42:58;66.22;;;38.38;;
54899;SDS011;40801;41.924;25.562;2024-03-02T03:45:24;62.55;;;37.42;;
54899;SDS011;40801;41.924;25.562;2024-03-02T03:47:51;66.80;;;42.50;;
54899;SDS011;40801;41.924;25.562;2024-03-02T03:50:17;67.30;;;40.63;;
54899;SDS011;40801;41.924;25.562;2024-03-02T03:52:43;63.78;;;38.65;;
54899;SDS011;40801;41.924;25.562;2024-03-02T03:55:08;106.32;;;46.50;;
54899;SDS011;40801;41.924;25.562;2024-03-02T03:57:35;65.65;;;41.30;;
54899;SDS011;40801;41.924;25.562;2024-03-02T04:00:00;91.80;;;47.08;;
54899;SDS011;40801;41.924;25.562;2024-03-02T04:02:26;78.38;;;39.28;;
54899;SDS011;40801;41.924;25.562;2024-03-02T04:04:51;57.63;;;37.17;;
54899;SDS011;40801;41.924;25.562;2024-03-02T04:07:16;81.72;;;42.72;;
54899;SDS011;40801;41.924;25.562;2024-03-02T04:09:42;70.78;;;40.00;;
54899;SDS011;40801;41.924;25.562;2024-03-02T04:12:07;74.70;;;42.95;;
54899;SDS011;40801;41.924;25.562;2024-03-02T04:14:33;56.83;;;38.22;;
54899;SDS011;40801;41.924;25.562;2024-03-02T04:16:58;80.03;;;41.80;;
54899;SDS011;40801;41.924;25.562;2024-03-02T04:19:24;77.13;;;44.08;;
54899;SDS011;40801;41.924;25.562;2024-03-02T04:21:49;65.93;;;37.72;;
54899;SDS011;40801;41.924;25.562;2024-03-02T04:24:14;69.72;;;40.95;;
54899;SDS011;40801;41.924;25.562;2024-03-02T04:26:40;90.30;;;42.35;;
54899;SDS011;40801;41.924;25.562;2024-03-02T04:29:05;73.95;;;40.83;;
54899;SDS011;40801;41.924;25.562;2024-03-02T04:31:30;71.47;;;37.45;;
54899;SDS011;40801;41.924;25.562;2024-03-02T04:33:56;71.13;;;38.80;;
54899;SDS011;40801;41.924;25.562;2024-03-02T04:36:21;75.05;;;42.28;;
54899;SDS011;40801;41.924;25.562;2024-03-02T04:38:47;61.75;;;39.15;;
54899;SDS011;40801;41.924;25.562;2024-03-02T04:41:13;60.10;;;37.63;;
54899;SDS011;40801;41.924;25.562;2024-03-02T04:43:38;59.08;;;34.28;;
54899;SDS011;40801;41.924;25.562;2024-03-02T04:46:04;61.95;;;37.05;;
54899;SDS011;40801;41.924;25.562;2024-03-02T04:48:30;67.00;;;37.90;;
54899;SDS011;40801;41.924;25.562;2024-03-02T04:50:56;80.03;;;37.42;;
54899;SDS011;40801;41.924;25.562;2024-03-02T04:53:21;66.07;;;38.83;;
54899;SDS011;40801;41.924;25.562;2024-03-02T04:55:47;101.57;;;47.10;;
54899;SDS011;40801;41.924;25.562;2024-03-02T04:58:20;84.00;;;46.40;;
54899;SDS011;40801;41.924;25.562;2024-03-02T05:00:46;66.60;;;36.42;;
54899;SDS011;40801;41.924;25.562;2024-03-02T05:03:11;77.18;;;40.92;;
54899;SDS011;40801;41.924;25.562;2024-03-02T05:05:37;80.70;;;43.45;;
54899;SDS011;40801;41.924;25.562;2024-03-02T05:08:03;84.60;;;44.95;;
54899;SDS011;40801;41.924;25.562;2024-03-02T05:10:29;85.32;;;43.08;;
54899;SDS011;40801;41.924;25.562;2024-03-02T05:12:54;73.00;;;41.15;;
54899;SDS011;40801;41.924;25.562;2024-03-02T05:15:24;74.93;;;41.90;;
54899;SDS011;40801;41.924;25.562;2024-03-02T05:17:50;60.72;;;36.85;;
54899;SDS011;40801;41.924;25.562;2024-03-02T05:20:16;85.43;;;42.00;;
54899;SDS011;40801;41.924;25.562;2024-03-02T05:22:42;82.32;;;44.75;;
54899;SDS011;40801;41.924;25.562;2024-03-02T05:25:08;79.38;;;43.72;;
54899;SDS011;40801;41.924;25.562;2024-03-02T05:27:37;87.88;;;45.25;;
54899;SDS011;40801;41.924;25.562;2024-03-02T05:30:02;76.70;;;46.60;;
54899;SDS011;40801;41.924;25.562;2024-03-02T05:32:28;88.43;;;52.83;;
54899;SDS011;40801;41.924;25.562;2024-03-02T05:34:54;98.15;;;53.10;;
54899;SDS011;40801;41.924;25.562;2024-03-02T05:37:20;91.15;;;51.45;;
54899;SDS011;40801;41.924;25.562;2024-03-02T05:39:45;78.32;;;45.47;;
54899;SDS011;40801;41.924;25.562;2024-03-02T05:42:11;84.50;;;48.55;;
54899;SDS011;40801;41.924;25.562;2024-03-02T05:44:36;104.65;;;55.28;;
54899;SDS011;40801;41.924;25.562;2024-03-02T05:47:02;83.55;;;47.17;;
54899;SDS011;40801;41.924;25.562;2024-03-02T05:49:28;87.93;;;51.35;;
54899;SDS011;40801;41.924;25.562;2024-03-02T05:51:53;109.47;;;56.20;;
54899;SDS011;40801;41.924;25.562;2024-03-02T05:54:18;100.75;;;53.75;;
54899;SDS011;40801;41.924;25.562;2024-03-02T05:56:44;196.10;;;139.70;;
54899;SDS011;40801;41.924;25.562;2024-03-02T05:59:09;72.75;;;43.38;;
54899;SDS011;40801;41.924;25.562;2024-03-02T06:01:38;85.07;;;47.00;;
54899;SDS011;40801;41.924;25.562;2024-03-02T06:04:08;86.60;;;47.85;;
54899;SDS011;40801;41.924;25.562;2024-03-02T06:06:34;81.82;;;46.72;;
54899;SDS011;40801;41.924;25.562;2024-03-02T06:09:03;120.15;;;81.95;;
54899;SDS011;40801;41.924;25.562;2024-03-02T06:11:32;61.63;;;41.83;;
54899;SDS011;40801;41.924;25.562;2024-03-02T06:14:01;62.05;;;41.75;;
54899;SDS011;40801;41.924;25.562;2024-03-02T06:16:27;53.13;;;36.22;;
54899;SDS011;40801;41.924;25.562;2024-03-02T06:18:52;63.90;;;40.95;;
54899;SDS011;40801;41.924;25.562;2024-03-02T06:21:19;62.10;;;41.40;;
54899;SDS011;40801;41.924;25.562;2024-03-02T06:23:44;56.22;;;39.00;;
54899;SDS011;40801;41.924;25.562;2024-03-02T06:26:10;54.75;;;38.92;;
54899;SDS011;40801;41.924;25.562;2024-03-02T06:28:35;73.20;;;52.55;;
54899;SDS011;40801;41.924;25.562;2024-03-02T06:31:01;51.30;;;36.45;;
54899;SDS011;40801;41.924;25.562;2024-03-02T06:33:27;59.28;;;40.10;;
54899;SDS011;40801;41.924;25.562;2024-03-02T06:35:53;58.13;;;40.38;;
54899;SDS011;40801;41.924;25.562;2024-03-02T06:38:19;49.22;;;34.28;;
54899;SDS011;40801;41.924;25.562;2024-03-02T06:40:44;45.97;;;33.67;;
54899;SDS011;40801;41.924;25.562;2024-03-02T06:43:09;39.92;;;31.10;;
54899;SDS011;40801;41.924;25.562;2024-03-02T06:45:35;38.42;;;28.33;;
54899;SDS011;40801;41.924;25.562;2024-03-02T06:48:00;36.78;;;29.55;;
54899;SDS011;40801;41.924;25.562;2024-03-02T06:50:26;41.05;;;29.42;;
54899;SDS011;40801;41.924;25.562;2024-03-02T06:52:51;40.20;;;28.05;;
54899;SDS011;40801;41.924;25.562;2024-03-02T06:55:17;36.15;;;27.70;;
54899;SDS011;40801;41.924;25.562;2024-03-02T06:57:42;29.67;;;24.10;;
54899;SDS011;40801;41.924;25.562;2024-03-02T07:00:08;33.33;;;27.85;;
54899;SDS011;40801;41.924;25.562;2024-03-02T07:02:34;31.05;;;25.67;;
54899;SDS011;40801;41.924;25.562;2024-03-02T07:05:01;31.55;;;24.38;;
54899;SDS011;40801;41.924;25.562;2024-03-02T07:07:26;33.78;;;24.80;;
54899;SDS011;40801;41.924;25.562;2024-03-02T07:09:51;35.55;;;26.77;;
54899;SDS011;40801;41.924;25.562;2024-03-02T07:12:17;35.42;;;26.73;;
54899;SDS011;40801;41.924;25.562;2024-03-02T07:14:42;37.22;;;29.95;;
54899;SDS011;40801;41.924;25.562;2024-03-02T07:17:26;69.85;;;51.58;;
54899;SDS011;40801;41.924;25.562;2024-03-02T07:19:51;41.92;;;32.47;;
54899;SDS011;40801;41.924;25.562;2024-03-02T07:22:17;47.50;;;34.88;;
54899;SDS011;40801;41.924;25.562;2024-03-02T07:24:43;34.53;;;24.95;;
54899;SDS011;40801;41.924;25.562;2024-03-02T07:27:09;41.10;;;30.42;;
54899;SDS011;40801;41.924;25.562;2024-03-02T07:29:35;40.00;;;28.50;;
54899;SDS011;40801;41.924;25.562;2024-03-02T07:32:01;40.10;;;30.67;;
54899;SDS011;40801;41.924;25.562;2024-03-02T07:34:26;41.28;;;30.70;;
54899;SDS011;40801;41.924;25.562;2024-03-02T07:36:51;38.90;;;29.60;;
54899;SDS011;40801;41.924;25.562;2024-03-02T07:39:17;35.22;;;27.65;;
54899;SDS011;40801;41.924;25.562;2024-03-02T07:41:44;33.70;;;23.65;;
54899;SDS011;40801;41.924;25.562;2024-03-02T07:44:11;32.58;;;25.63;;
54899;SDS011;40801;41.924;25.562;2024-03-02T07:46:39;35.55;;;26.98;;
54899;SDS011;40801;41.924;25.562;2024-03-02T07:49:08;35.83;;;25.07;;
54899;SDS011;40801;41.924;25.562;2024-03-02T07:51:34;28.05;;;22.85;;
54899;SDS011;40801;41.924;25.562;2024-03-02T07:53:59;34.00;;;24.60;;
54899;SDS011;40801;41.924;25.562;2024-03-02T07:56:25;36.38;;;26.20;;
54899;SDS011;40801;41.924;25.562;2024-03-02T07:58:51;33.30;;;25.67;;
54899;SDS011;40801;41.924;25.562;2024-03-02T11:05:43;58.55;;;45.22;;
54899;SDS011;40801;41.924;25.562;2024-03-02T11:08:13;61.30;;;45.83;;
54899;SDS011;40801;41.924;25.562;2024-03-02T11:10:42;68.40;;;48.15;;
54899;SDS011;40801;41.924;25.562;2024-03-02T11:13:13;56.05;;;43.20;;
54899;SDS011;40801;41.924;25.562;2024-03-02T11:15:43;66.78;;;50.17;;
54899;SDS011;40801;41.924;25.562;2024-03-02T11:18:09;60.58;;;41.20;;
54899;SDS011;40801;41.924;25.562;2024-03-02T11:20:39;55.47;;;39.22;;
54899;SDS011;40801;41.924;25.562;2024-03-02T11:23:06;61.72;;;45.33;;
54899;SDS011;40801;41.924;25.562;2024-03-02T11:25:32;55.45;;;40.25;;
54899;SDS011;40801;41.924;25.562;2024-03-02T11:28:04;63.22;;;45.67;;
54899;SDS011;40801;41.924;25.562;2024-03-02T11:33:00;61.70;;;46.97;;
54899;SDS011;40801;41.924;25.562;2024-03-02T11:35:26;61.55;;;45.72;;
54899;SDS011;40801;41.924;25.562;2024-03-02T11:37:54;63.53;;;47.38;;
54899;SDS011;40801;41.924;25.562;2024-03-02T11:40:24;60.72;;;43.70;;
54899;SDS011;40801;41.924;25.562;2024-03-02T11:42:50;55.47;;;41.58;;
54899;SDS011;40801;41.924;25.562;2024-03-02T11:45:22;56.25;;;42.97;;
54899;SDS011;40801;41.924;25.562;2024-03-02T11:47:55;59.38;;;44.38;;
54899;SDS011;40801;41.924;25.562;2024-03-02T11:50:46;57.90;;;41.92;;
54899;SDS011;40801;41.924;25.562;2024-03-02T11:53:12;51.00;;;40.03;;
54899;SDS011;40801;41.924;25.562;2024-03-02T11:55:38;54.15;;;40.35;;
54899;SDS011;40801;41.924;25.562;2024-03-02T11:58:06;55.03;;;39.67;;
54899;SDS011;40801;41.924;25.562;2024-03-02T12:00:32;55.75;;;39.70;;
54899;SDS011;40801;41.924;25.562;2024-03-02T12:03:07;62.33;;;45.67;;
54899;SDS011;40801;41.924;25.562;2024-03-02T12:05:34;55.80;;;41.47;;
54899;SDS011;40801;41.924;25.562;2024-03-02T12:08:04;53.92;;;39.97;;
54899;SDS011;40801;41.924;25.562;2024-03-02T12:10:31;43.03;;;35.88;;
54899;SDS011;40801;41.924;25.562;2024-03-02T12:12:57;50.03;;;38.67;;
54899;SDS011;40801;41.924;25.562;2024-03-02T12:15:28;52.08;;;40.78;;
54899;SDS011;40801;41.924;25.562;2024-03-02T12:17:55;54.50;;;35.75;;
54899;SDS011;40801;41.924;25.562;2024-03-02T12:20:21;48.22;;;37.80;;
54899;SDS011;40801;41.924;25.562;2024-03-02T12:22:53;42.58;;;32.40;;
54899;SDS011;40801;41.924;25.562;2024-03-02T12:25:20;51.45;;;38.22;;
54899;SDS011;40801;41.924;25.562;2024-03-02T12:27:46;45.35;;;32.85;;
54899;SDS011;40801;41.924;25.562;2024-03-02T12:30:14;46.08;;;32.10;;
54899;SDS011;40801;41.924;25.562;2024-03-02T12:32:41;39.47;;;30.65;;
54899;SDS011;40801;41.924;25.562;2024-03-02T12:35:06;44.20;;;32.72;;
54899;SDS011;40801;41.924;25.562;2024-03-02T12:37:32;42.70;;;33.55;;
54899;SDS011;40801;41.924;25.562;2024-03-02T12:39:58;42.72;;;31.08;;
54899;SDS011;40801;41.924;25.562;2024-03-02T12:42:24;39.92;;;31.35;;
54899;SDS011;40801;41.924;25.562;2024-03-02T12:44:52;37.63;;;28.13;;
54899;SDS011;40801;41.924;25.562;2024-03-02T12:47:20;46.83;;;35.17;;
54899;SDS011;40801;41.924;25.562;2024-03-02T12:49:46;41.63;;;31.30;;
54899;SDS011;40801;41.924;25.562;2024-03-02T12:52:12;40.15;;;32.35;;
54899;SDS011;40801;41.924;25.562;2024-03-02T12:54:38;46.75;;;33.30;;
54899;SDS011;40801;41.924;25.562;2024-03-02T12:57:04;45.80;;;33.35;;
54899;SDS011;40801;41.924;25.562;2024-03-02T12:59:29;44.83;;;33.95;;
54899;SDS011;40801;41.924;25.562;2024-03-02T13:01:56;48.25;;;35.90;;
54899;SDS011;40801;41.924;25.562;2024-03-02T13:04:26;44.03;;;32.47;;
54899;SDS011;40801;41.924;25.562;2024-03-02T13:06:53;45.22;;;33.85;;
54899;SDS011;40801;41.924;25.562;2024-03-02T13:09:21;47.78;;;32.95;;
54899;SDS011;40801;41.924;25.562;2024-03-02T13:11:46;44.97;;;31.52;;
54899;SDS011;40801;41.924;25.562;2024-03-02T13:14:12;38.80;;;31.50;;
54899;SDS011;40801;41.924;25.562;2024-03-02T13:16:41;33.00;;;28.02;;
54899;SDS011;40801;41.924;25.562;2024-03-02T13:19:13;39.88;;;30.40;;
54899;SDS011;40801;41.924;25.562;2024-03-02T13:21:38;38.20;;;30.98;;
54899;SDS011;40801;41.924;25.562;2024-03-02T13:24:04;40.38;;;30.88;;
54899;SDS011;40801;41.924;25.562;2024-03-02T13:26:30;44.50;;;31.33;;
54899;SDS011;40801;41.924;25.562;2024-03-02T13:28:56;40.55;;;31.30;;
54899;SDS011;40801;41.924;25.562;2024-03-02T13:31:21;38.92;;;31.85;;
54899;SDS011;40801;41.924;25.562;2024-03-02T13:33:47;44.97;;;34.05;;
54899;SDS011;40801;41.924;25.562;2024-03-02T13:36:13;45.92;;;33.65;;
54899;SDS011;40801;41.924;25.562;2024-03-02T13:38:38;37.90;;;28.77;;
54899;SDS011;40801;41.924;25.562;2024-03-02T13:41:03;37.20;;;30.55;;
54899;SDS011;40801;41.924;25.562;2024-03-02T13:43:29;42.30;;;33.03;;
54899;SDS011;40801;41.924;25.562;2024-03-02T13:45:58;39.72;;;32.13;;
54899;SDS011;40801;41.924;25.562;2024-03-02T13:48:24;50.08;;;35.95;;
54899;SDS011;40801;41.924;25.562;2024-03-02T13:50:51;44.83;;;34.78;;
54899;SDS011;40801;41.924;25.562;2024-03-02T13:53:17;44.90;;;35.08;;
54899;SDS011;40801;41.924;25.562;2024-03-02T13:55:43;39.05;;;31.33;;
54899;SDS011;40801;41.924;25.562;2024-03-02T13:58:09;44.50;;;33.58;;
54899;SDS011;40801;41.924;25.562;2024-03-02T14:00:34;37.20;;;29.52;;
54899;SDS011;40801;41.924;25.562;2024-03-02T14:03:00;38.58;;;31.30;;
54899;SDS011;40801;41.924;25.562;2024-03-02T14:05:26;41.17;;;32.85;;
54899;SDS011;40801;41.924;25.562;2024-03-02T14:07:51;44.58;;;33.85;;
54899;SDS011;40801;41.924;25.562;2024-03-02T14:10:17;39.97;;;30.38;;
54899;SDS011;40801;41.924;25.562;2024-03-02T14:12:47;39.40;;;30.25;;
54899;SDS011;40801;41.924;25.562;2024-03-02T14:15:12;37.85;;;28.85;;
54899;SDS011;40801;41.924;25.562;2024-03-02T14:17:38;35.63;;;28.30;;
54899;SDS011;40801;41.924;25.562;2024-03-02T14:20:04;42.38;;;33.17;;
54899;SDS011;40801;41.924;25.562;2024-03-02T14:22:30;40.35;;;31.92;;
54899;SDS011;40801;41.924;25.562;2024-03-02T14:24:56;39.78;;;31.80;;
54899;SDS011;40801;41.924;25.562;2024-03-02T14:27:22;34.38;;;27.58;;
54899;SDS011;40801;41.924;25.562;2024-03-02T14:29:47;44.20;;;33.60;;
54899;SDS011;40801;41.924;25.562;2024-03-02T14:32:13;33.17;;;29.60;;
54899;SDS011;40801;41.924;25.562;2024-03-02T14:34:38;41.65;;;31.33;;
54899;SDS011;40801;41.924;25.562;2024-03-02T14:37:03;39.17;;;30.60;;
54899;SDS011;40801;41.924;25.562;2024-03-02T14:39:29;35.30;;;28.88;;
54899;SDS011;40801;41.924;25.562;2024-03-02T14:41:58;38.95;;;29.40;;
54899;SDS011;40801;41.924;25.562;2024-03-02T14:44:23;38.30;;;30.15;;
54899;SDS011;40801;41.924;25.562;2024-03-02T14:46:49;41.20;;;31.80;;
54899;SDS011;40801;41.924;25.562;2024-03-02T14:49:15;40.00;;;30.90;;
54899;SDS011;40801;41.924;25.562;2024-03-02T14:51:41;41.47;;;33.08;;
54899;SDS011;40801;41.924;25.562;2024-03-02T14:54:06;46.63;;;37.13;;
54899;SDS011;40801;41.924;25.562;2024-03-02T14:56:31;39.33;;;31.00;;
54899;SDS011;40801;41.924;25.562;2024-03-02T14:58:57;47.80;;;37.55;;
54899;SDS011;40801;41.924;25.562;2024-03-02T15:01:22;45.03;;;33.70;;
54899;SDS011;40801;41.924;25.562;2024-03-02T15:03:49;47.60;;;38.10;;
54899;SDS011;40801;41.924;25.562;2024-03-02T15:06:15;38.05;;;30.88;;
54899;SDS011;40801;41.924;25.562;2024-03-02T15:08:41;39.85;;;31.23;;
54899;SDS011;40801;41.924;25.562;2024-03-02T15:11:07;38.10;;;30.35;;
54899;SDS011;40801;41.924;25.562;2024-03-02T15:13:33;47.15;;;41.45;;
54899;SDS011;40801;41.924;25.562;2024-03-02T15:15:59;44.42;;;34.33;;
54899;SDS011;40801;41.924;25.562;2024-03-02T15:18:24;41.92;;;33.42;;
54899;SDS011;40801;41.924;25.562;2024-03-02T15:20:50;38.15;;;31.33;;
54899;SDS011;40801;41.924;25.562;2024-03-02T15:23:15;36.38;;;30.10;;
54899;SDS011;40801;41.924;25.562;2024-03-02T15:25:41;37.08;;;30.70;;
54899;SDS011;40801;41.924;25.562;2024-03-02T15:28:06;38.33;;;30.27;;
54899;SDS011;40801;41.924;25.562;2024-03-02T15:30:31;35.40;;;28.88;;
54899;SDS011;40801;41.924;25.562;2024-03-02T15:32:57;46.65;;;33.22;;
54899;SDS011;40801;41.924;25.562;2024-03-02T15:35:22;37.78;;;31.52;;
54899;SDS011;40801;41.924;25.562;2024-03-02T15:37:48;38.25;;;32.15;;
54899;SDS011;40801;41.924;25.562;2024-03-02T15:40:13;41.08;;;34.38;;
54899;SDS011;40801;41.924;25.562;2024-03-02T15:42:38;38.47;;;32.33;;
54899;SDS011;40801;41.924;25.562;2024-03-02T15:45:04;37.30;;;28.80;;
54899;SDS011;40801;41.924;25.562;2024-03-02T15:47:30;37.78;;;31.55;;
54899;SDS011;40801;41.924;25.562;2024-03-02T15:49:55;43.38;;;34.20;;
54899;SDS011;40801;41.924;25.562;2024-03-02T15:52:21;39.17;;;29.98;;
54899;SDS011;40801;41.924;25.562;2024-03-02T15:54:49;31.60;;;27.95;;
54899;SDS011;40801;41.924;25.562;2024-03-02T15:57:15;33.78;;;27.70;;
54899;SDS011;40801;41.924;25.562;2024-03-02T15:59:42;37.03;;;29.90;;
54899;SDS011;40801;41.924;25.562;2024-03-02T16:02:08;31.88;;;26.73;;
54899;SDS011;40801;41.924;25.562;2024-03-02T16:04:33;37.83;;;32.67;;
54899;SDS011;40801;41.924;25.562;2024-03-02T16:06:58;37.88;;;28.05;;
54899;SDS011;40801;41.924;25.562;2024-03-02T16:09:24;37.20;;;27.90;;
54899;SDS011;40801;41.924;25.562;2024-03-02T16:11:49;36.33;;;28.40;;
54899;SDS011;40801;41.924;25.562;2024-03-02T16:14:15;30.63;;;25.52;;
54899;SDS011;40801;41.924;25.562;2024-03-02T16:16:41;34.97;;;28.77;;
54899;SDS011;40801;41.924;25.562;2024-03-02T16:19:07;35.75;;;29.38;;
54899;SDS011;40801;41.924;25.562;2024-03-02T16:21:32;31.08;;;26.20;;
54899;SDS011;40801;41.924;25.562;2024-03-02T16:23:57;29.63;;;26.35;;
54899;SDS011;40801;41.924;25.562;2024-03-02T16:26:23;33.88;;;27.45;;
54899;SDS011;40801;41.924;25.562;2024-03-02T16:28:49;36.50;;;30.45;;
54899;SDS011;40801;41.924;25.562;2024-03-02T16:31:14;36.40;;;29.13;;
54899;SDS011;40801;41.924;25.562;2024-03-02T16:33:43;34.47;;;28.67;;
54899;SDS011;40801;41.924;25.562;2024-03-02T16:36:09;42.88;;;33.42;;
54899;SDS011;40801;41.924;25.562;2024-03-02T16:38:35;40.35;;;33.15;;
54899;SDS011;40801;41.924;25.562;2024-03-02T16:41:01;38.17;;;30.67;;
54899;SDS011;40801;41.924;25.562;2024-03-02T16:43:26;41.47;;;33.55;;
54899;SDS011;40801;41.924;25.562;2024-03-02T16:45:51;35.80;;;31.15;;
54899;SDS011;40801;41.924;25.562;2024-03-02T16:48:17;37.65;;;30.42;;
54899;SDS011;40801;41.924;25.562;2024-03-02T16:50:42;49.30;;;37.45;;
54899;SDS011;40801;41.924;25.562;2024-03-02T16:53:08;45.08;;;36.28;;
54899;SDS011;40801;41.924;25.562;2024-03-02T16:55:33;44.95;;;33.03;;
54899;SDS011;40801;41.924;25.562;2024-03-02T16:57:59;38.85;;;32.28;;
54899;SDS011;40801;41.924;25.562;2024-03-02T17:00:24;40.72;;;35.88;;
54899;SDS011;40801;41.924;25.562;2024-03-02T17:02:50;40.38;;;34.08;;
54899;SDS011;40801;41.924;25.562;2024-03-02T17:05:17;38.15;;;31.45;;
54899;SDS011;40801;41.924;25.562;2024-03-02T17:07:46;39.30;;;32.23;;
54899;SDS011;40801;41.924;25.562;2024-03-02T17:10:12;44.45;;;35.17;;
54899;SDS011;40801;41.924;25.562;2024-03-02T17:12:37;38.90;;;34.30;;